Time;durP1;ratioP1;P1;durP2;ratioP2;P2;SDS_P1;SDS_P2;PMS_P1;PMS_P2;Temp;Humidity;BMP_temperature;BMP_pressure;BME280_temperature;BME280_humidity;BME280_pressure;Samples;Min_cycle;Max_cycle;Signal;HPM_P1;HPM_P2
2022/09/11 00:03:33;;;;;;;5.90;3.88;;;;;;;22.79;55.46;100874.09;5048310;28;20461;-62
2022/09/11 00:06:04;;;;;;;4.57;3.65;;;;;;;22.76;55.31;100866.47;5024659;28;20415;-61
2022/09/11 00:10:39;;;;;;;6.00;3.30;;;;;;;22.71;55.43;100872.63;5092255;27;20984;-62
2022/09/11 00:15:14;;;;;;;4.30;3.20;;;;;;;22.63;55.48;100870.31;5052308;28;20406;-61
2022/09/11 00:17:39;;;;;;;5.13;3.00;;;;;;;22.62;55.63;100869.50;5031258;28;20451;-62
2022/09/11 00:20:05;;;;;;;5.05;3.10;;;;;;;22.64;55.50;100869.28;5045766;28;20397;-62
2022/09/11 00:22:30;;;;;;;3.97;2.83;;;;;;;22.61;55.46;100865.16;5029248;28;20396;-62
2022/09/11 00:24:57;;;;;;;3.50;3.20;;;;;;;22.61;55.66;100872.47;5032841;28;20392;-62
2022/09/11 00:29:16;;;;;;;6.03;3.10;;;;;;;22.57;55.87;100871.31;5034832;28;20986;-62
2022/09/11 00:31:42;;;;;;;5.65;3.08;;;;;;;22.51;55.71;100867.72;5045183;28;20401;-61
2022/09/11 00:34:08;;;;;;;5.90;3.20;;;;;;;22.50;55.78;100866.06;5045329;28;20413;-61
2022/09/11 00:36:40;;;;;;;5.90;3.22;;;;;;;22.42;56.19;100864.59;5030885;28;20887;-62
2022/09/11 00:40:45;;;;;;;5.28;3.10;;;;;;;22.37;56.44;100869.91;5041953;28;20461;-61
2022/09/11 00:43:15;;;;;;;3.88;3.15;;;;;;;22.35;56.58;100863.13;5024674;28;20930;-61
2022/09/11 00:45:42;;;;;;;5.00;2.95;;;;;;;22.31;56.59;100860.09;5024505;28;20956;-61
2022/09/11 00:48:10;;;;;;;5.23;3.30;;;;;;;22.28;56.81;100863.28;5011505;28;20814;-61
2022/09/11 00:50:36;;;;;;;4.53;2.83;;;;;;;22.25;56.77;100864.53;5024229;28;20391;-61
2022/09/11 00:54:48;;;;;;;5.90;2.95;;;;;;;22.21;56.49;100863.41;5050301;28;20459;-62
2022/09/11 00:57:17;;;;;;;3.90;2.78;;;;;;;22.18;56.58;100863.88;5045436;28;20408;-61
2022/09/11 00:59:46;;;;;;;4.35;2.83;;;;;;;22.18;56.58;100865.78;5045385;28;20555;-62
2022/09/11 01:02:16;;;;;;;4.40;2.95;;;;;;;22.12;56.73;100860.28;5034950;28;20387;-62
2022/09/11 01:04:42;;;;;;;5.10;2.83;;;;;;;22.10;56.78;100859.72;5031596;28;20755;-61
2022/09/11 01:07:09;;;;;;;4.15;2.65;;;;;;;22.08;56.79;100867.25;5044931;28;20763;-62
2022/09/11 01:11:22;;;;;;;3.45;3.15;;;;;;;22.02;56.56;100859.28;5051603;28;20478;-61
2022/09/11 01:15:50;;;;;;;5.85;2.80;;;;;;;22.00;56.79;100856.81;5045882;28;20431;-61
2022/09/11 01:18:31;;;;;;;5.17;2.67;;;;;;;21.98;56.78;100866.22;5025437;28;20920;-61
2022/09/11 01:21:20;;;;;;;6.03;2.67;;;;;;;21.94;56.55;100855.09;5023346;28;20433;-60
2022/09/11 01:24:19;;;;;;;4.30;2.90;;;;;;;21.90;56.61;100851.25;5025808;28;20407;-60
2022/09/11 01:27:01;;;;;;;5.28;2.70;;;;;;;21.82;56.47;100852.44;5025062;28;20482;-60
2022/09/11 01:32:10;;;;;;;4.43;2.90;;;;;;;21.83;56.37;100859.50;5073616;28;20416;-62
2022/09/11 01:34:58;;;;;;;4.40;2.92;;;;;;;21.81;56.60;100858.13;5050746;28;20449;-62
2022/09/11 01:38:54;;;;;;;4.97;2.50;;;;;;;21.73;56.46;100851.19;5047940;28;20946;-61
2022/09/11 01:41:59;;;;;;;5.00;2.70;;;;;;;21.82;56.57;100860.53;5025046;28;20788;-62
2022/09/11 01:44:49;;;;;;;4.57;2.90;;;;;;;21.79;56.49;100852.09;5024753;28;20406;-62
2022/09/11 01:47:18;;;;;;;2.88;2.60;;;;;;;21.80;56.49;100853.75;5025110;28;20392;-61
2022/09/11 01:50:00;;;;;;;3.20;2.90;;;;;;;21.79;56.45;100860.19;5025220;28;20382;-61
2022/09/11 01:52:34;;;;;;;5.80;2.88;;;;;;;21.76;56.32;100856.94;5024763;28;20766;-61
2022/09/11 01:56:09;;;;;;;4.05;2.90;;;;;;;21.77;56.56;100855.88;5052831;28;20919;-61
2022/09/11 01:58:36;;;;;;;8.03;3.10;;;;;;;21.73;56.50;100852.03;5044660;28;20949;-61
2022/09/11 02:01:26;;;;;;;6.53;3.20;;;;;;;21.74;56.30;100853.66;5033866;28;20474;-61
2022/09/11 02:04:12;;;;;;;6.18;2.80;;;;;;;21.73;56.30;100849.34;5019101;28;20741;-61
2022/09/11 02:07:01;;;;;;;4.32;3.20;;;;;;;21.75;56.55;100854.47;5044536;28;20409;-61
2022/09/11 02:09:33;;;;;;;6.75;2.97;;;;;;;21.72;56.56;100849.56;5045317;28;20382;-61
2022/09/11 02:12:03;;;;;;;4.40;3.10;;;;;;;21.73;56.63;100843.94;5044339;28;20798;-61
2022/09/11 02:14:51;;;;;;;6.80;3.60;;;;;;;21.69;56.51;100845.47;5045105;28;20417;-61
2022/09/11 02:18:00;;;;;;;5.20;3.10;;;;;;;21.67;56.79;100841.38;5066279;28;20877;-61
2022/09/11 02:20:27;;;;;;;4.07;3.10;;;;;;;21.68;56.63;100848.41;5044555;28;20463;-61
2022/09/11 02:22:53;;;;;;;4.20;3.30;;;;;;;21.68;56.72;100851.09;5044022;28;20382;-62
2022/09/11 02:25:18;;;;;;;5.18;3.35;;;;;;;21.67;56.69;100844.06;5043267;28;20398;-61
2022/09/11 02:27:44;;;;;;;3.80;3.20;;;;;;;21.63;56.83;100848.31;5044723;28;20386;-62
2022/09/11 02:30:11;;;;;;;6.82;3.55;;;;;;;21.63;56.99;100854.53;5044903;28;20436;-61
2022/09/11 02:32:39;;;;;;;3.75;3.35;;;;;;;21.58;56.86;100852.53;5044612;28;20504;-61
2022/09/11 02:35:15;;;;;;;4.00;3.60;;;;;;;21.58;57.12;100849.03;5047809;28;20413;-61
2022/09/11 02:42:37;;;;;;;4.70;3.83;;;;;;;21.54;57.04;100851.38;5053534;27;20489;-61
2022/09/11 02:45:31;;;;;;;4.70;3.60;;;;;;;21.54;57.15;100850.59;5045204;28;20500;-62
2022/09/11 02:48:23;;;;;;;4.38;3.53;;;;;;;21.49;57.17;100845.06;5031417;28;20381;-61
2022/09/11 02:52:01;;;;;;;5.78;3.53;;;;;;;21.47;57.22;100845.31;5053159;28;20410;-61
2022/09/11 02:55:19;;;;;;;6.55;3.53;;;;;;;21.43;57.21;100848.69;5074941;27;20429;-62
2022/09/11 02:58:01;;;;;;;6.22;3.60;;;;;;;21.34;57.45;100841.00;5061808;28;20416;-62
2022/09/11 03:00:27;;;;;;;8.95;3.90;;;;;;;21.36;57.47;100859.63;5045064;28;20373;-62
2022/09/11 03:05:36;;;;;;;7.45;3.78;;;;;;;21.35;57.37;100852.59;5093155;27;20794;-61
2022/09/11 03:08:03;;;;;;;4.05;3.40;;;;;;;21.37;57.31;100858.56;5070781;28;20503;-61
2022/09/11 03:10:28;;;;;;;4.70;3.40;;;;;;;21.36;57.38;100859.63;5074816;28;20376;-62
2022/09/11 03:14:37;;;;;;;6.15;3.45;;;;;;;21.32;57.41;100855.75;5155874;27;20401;-61
2022/09/11 03:18:49;;;;;;;4.00;3.47;;;;;;;21.33;57.23;100860.91;5030149;28;20429;-61
2022/09/11 03:21:15;;;;;;;5.33;3.60;;;;;;;21.27;57.36;100866.44;5025307;28;20403;-61
2022/09/11 03:23:42;;;;;;;6.07;3.67;;;;;;;21.27;57.37;100872.66;5024740;28;20449;-62
2022/09/11 03:26:07;;;;;;;5.40;3.72;;;;;;;21.28;57.26;100862.69;5024651;28;20473;-61
2022/09/11 03:28:33;;;;;;;6.37;3.60;;;;;;;21.29;57.45;100872.41;5025165;28;20415;-61
2022/09/11 03:30:58;;;;;;;5.25;3.42;;;;;;;21.28;57.16;100876.97;5024621;28;20438;-61
2022/09/11 03:33:24;;;;;;;4.90;3.70;;;;;;;21.25;57.31;100872.06;5025312;28;20869;-61
2022/09/11 03:36:40;;;;;;;5.63;3.75;;;;;;;21.23;57.35;100868.81;5064362;28;20414;-61
2022/09/11 03:39:06;;;;;;;5.80;3.73;;;;;;;21.25;57.29;100874.78;5044939;28;20447;-61
2022/09/11 03:41:31;;;;;;;5.88;3.70;;;;;;;21.26;57.40;100878.28;5045439;28;20767;-60
2022/09/11 03:43:57;;;;;;;4.40;3.70;;;;;;;21.23;57.35;100884.13;5044960;28;20527;-62
2022/09/11 03:46:23;;;;;;;4.32;3.88;;;;;;;21.23;57.39;100892.22;5044708;28;20854;-61
2022/09/11 03:48:48;;;;;;;4.80;3.60;;;;;;;21.21;57.31;100889.75;5044586;28;20392;-60
2022/09/11 03:51:16;;;;;;;5.47;3.80;;;;;;;21.20;57.40;100890.84;5045010;28;20895;-60
2022/09/11 03:53:43;;;;;;;6.18;3.72;;;;;;;21.14;57.49;100891.75;5044608;28;20884;-61
2022/09/11 03:56:08;;;;;;;4.80;3.63;;;;;;;21.14;57.41;100889.06;5044661;28;20406;-61
2022/09/11 03:58:34;;;;;;;5.10;3.80;;;;;;;21.16;57.46;100886.97;5037123;28;20446;-61
2022/09/11 04:00:59;;;;;;;5.20;3.83;;;;;;;21.12;57.62;100892.03;5036538;28;20964;-61
2022/09/11 04:03:25;;;;;;;4.35;3.67;;;;;;;21.14;57.45;100899.84;5032793;28;20492;-61
2022/09/11 04:05:59;;;;;;;7.57;3.77;;;;;;;21.13;57.49;100896.34;5044533;28;20369;-61
2022/09/11 04:08:26;;;;;;;4.10;3.45;;;;;;;21.14;57.35;100894.47;5031427;28;20385;-61
2022/09/11 04:10:58;;;;;;;4.63;3.67;;;;;;;21.12;57.47;100899.25;5044011;28;20422;-61
2022/09/11 04:13:28;;;;;;;6.85;3.88;;;;;;;21.18;57.25;100901.84;5040149;28;20402;-61
2022/09/11 04:15:58;;;;;;;4.65;4.13;;;;;;;21.23;57.23;100903.84;5044409;28;20418;-61
2022/09/11 04:18:24;;;;;;;6.93;4.85;;;;;;;21.25;57.27;100898.19;5044199;28;20388;-61
2022/09/11 04:20:49;;;;;;;4.67;4.23;;;;;;;21.33;56.78;100909.44;5044470;28;21478;-61
2022/09/11 04:23:55;;;;;;;7.10;4.60;;;;;;;21.45;56.54;100903.22;5086828;27;21028;-62
2022/09/11 04:26:23;;;;;;;6.13;4.40;;;;;;;21.58;56.32;100903.78;5076108;28;20434;-61
2022/09/11 04:28:49;;;;;;;5.50;3.73;;;;;;;21.91;55.73;100906.84;5065740;28;20383;-62
2022/09/11 04:31:16;;;;;;;6.77;3.93;;;;;;;22.14;55.10;100901.34;5077700;28;20499;-63
2022/09/11 04:33:42;;;;;;;6.97;3.88;;;;;;;22.41;54.25;100905.38;5064597;28;20415;-62
2022/09/11 04:36:11;;;;;;;6.65;3.92;;;;;;;22.70;53.48;100906.91;5078799;28;20395;-62
2022/09/11 04:38:38;;;;;;;4.00;3.50;;;;;;;22.95;52.91;100910.28;5064720;28;20375;-62
2022/09/11 04:41:05;;;;;;;6.25;3.58;;;;;;;23.13;52.41;100895.69;5068253;28;20717;-62
2022/09/11 04:43:31;;;;;;;5.40;3.35;;;;;;;23.34;51.87;100899.50;5075378;28;20519;-62
2022/09/11 04:46:13;;;;;;;6.25;3.58;;;;;;;23.60;51.21;100908.72;5066771;28;20380;-62
2022/09/11 04:48:52;;;;;;;7.13;6.37;;;;;;;23.41;51.34;100898.22;5074519;28;20447;-62
2022/09/11 04:51:24;;;;;;;4.65;3.70;;;;;;;23.27;51.76;100910.50;5064074;28;20400;-62
2022/09/11 04:53:50;;;;;;;9.80;3.53;;;;;;;23.20;51.92;100904.44;5064327;28;20381;-62
2022/09/11 04:56:19;;;;;;;3.72;3.42;;;;;;;23.51;51.18;100905.66;5068636;28;20473;-62
2022/09/11 04:58:45;;;;;;;5.75;3.90;;;;;;;24.12;49.82;100899.31;5084331;28;20454;-62
2022/09/11 05:01:15;;;;;;;5.40;4.13;;;;;;;24.67;48.53;100906.34;5084365;28;20465;-62
2022/09/11 05:03:42;;;;;;;4.70;3.75;;;;;;;24.92;47.85;100904.84;5070218;28;20428;-62
2022/09/11 05:06:10;;;;;;;4.25;3.70;;;;;;;24.63;48.47;100902.50;5083108;28;20394;-62
2022/09/11 05:08:36;;;;;;;6.90;3.70;;;;;;;24.48;48.70;100900.44;5083623;28;20394;-62
2022/09/11 05:11:04;;;;;;;6.07;3.83;;;;;;;24.35;48.93;100901.69;5083502;28;20436;-62
2022/09/11 05:13:31;;;;;;;3.33;3.10;;;;;;;24.30;49.09;100898.94;5083032;28;20735;-62
2022/09/11 05:16:03;;;;;;;5.85;3.60;;;;;;;24.53;48.75;100899.72;5083107;28;20402;-62
2022/09/11 05:18:29;;;;;;;5.00;3.60;;;;;;;24.73;48.25;100902.56;5083092;28;20879;-62
2022/09/11 05:21:03;;;;;;;5.63;3.50;;;;;;;25.50;46.62;100894.91;5083541;28;20386;-62
2022/09/11 05:23:30;;;;;;;5.55;3.45;;;;;;;26.06;45.85;100899.69;5081665;28;20888;-62
2022/09/11 05:26:00;;;;;;;4.30;3.20;;;;;;;26.40;44.81;100891.03;5083218;28;20418;-62
2022/09/11 05:28:28;;;;;;;4.72;3.53;;;;;;;26.51;44.81;100894.56;5083731;28;20397;-62
2022/09/11 05:30:54;;;;;;;7.70;3.22;;;;;;;26.58;44.52;100889.66;5082658;28;20728;-62
2022/09/11 05:33:22;;;;;;;6.53;3.40;;;;;;;27.05;43.52;100891.25;5079901;28;20387;-62
2022/09/11 05:35:49;;;;;;;6.40;3.10;;;;;;;27.71;42.51;100883.09;5069793;28;20423;-62
2022/09/11 05:38:16;;;;;;;8.20;3.40;;;;;;;28.04;41.46;100884.31;5069258;28;20382;-62
2022/09/11 05:40:48;;;;;;;7.57;3.30;;;;;;;28.55;40.27;100883.09;5069414;28;20379;-62
2022/09/11 05:43:14;;;;;;;8.07;2.80;;;;;;;29.16;39.22;100876.22;5069709;28;20406;-62
2022/09/11 05:45:41;;;;;;;7.13;2.90;;;;;;;29.63;38.48;100877.25;5068553;28;20389;-62
2022/09/11 05:48:08;;;;;;;4.57;2.80;;;;;;;30.11;37.42;100868.91;5058608;28;20545;-61
2022/09/11 05:50:34;;;;;;;3.50;2.88;;;;;;;30.56;36.61;100876.69;5051225;28;20393;-61
2022/09/11 05:52:59;;;;;;;6.22;3.00;;;;;;;31.03;35.50;100866.50;5048198;28;20812;-61
2022/09/11 05:55:25;;;;;;;4.18;2.75;;;;;;;31.53;34.85;100865.78;5051559;28;20471;-62
2022/09/11 05:57:52;;;;;;;2.90;2.70;;;;;;;32.23;33.65;100869.09;5066879;28;20388;-61
2022/09/11 06:00:18;;;;;;;4.90;3.50;;;;;;;31.65;34.37;100873.44;5062415;28;20383;-59
2022/09/11 06:03:31;;;;;;;4.82;2.67;;;;;;;31.23;34.68;100864.47;5058463;27;20936;-61
2022/09/11 06:05:59;;;;;;;5.45;3.05;;;;;;;30.66;35.50;100864.72;5047474;28;20530;-61
2022/09/11 06:08:24;;;;;;;4.93;3.20;;;;;;;30.22;36.31;100860.56;5040941;28;20490;-61
2022/09/11 06:10:50;;;;;;;5.77;3.00;;;;;;;29.84;36.60;100864.16;5043758;28;20433;-61
2022/09/11 06:13:16;;;;;;;6.43;3.00;;;;;;;29.56;37.02;100871.34;5031909;28;20387;-61
2022/09/11 06:15:46;;;;;;;5.68;3.80;;;;;;;29.37;37.51;100874.06;5026019;28;20391;-61
2022/09/11 06:18:12;;;;;;;5.60;3.03;;;;;;;29.30;37.59;100874.41;5024189;28;20399;-61
2022/09/11 06:20:38;;;;;;;3.90;3.22;;;;;;;29.72;36.85;100880.94;5025977;28;20909;-61
2022/09/11 06:23:03;;;;;;;5.68;3.38;;;;;;;29.98;36.72;100874.31;5022690;28;20422;-61
2022/09/11 06:25:29;;;;;;;4.45;2.70;;;;;;;30.54;35.48;100861.66;5024806;28;20765;-61
2022/09/11 06:27:55;;;;;;;6.10;3.40;;;;;;;29.98;36.43;100877.06;5027088;28;20946;-61
2022/09/11 06:30:20;;;;;;;5.80;2.90;;;;;;;29.66;36.53;100875.88;5026457;28;20383;-61
2022/09/11 06:32:50;;;;;;;4.17;3.00;;;;;;;29.35;37.06;100881.72;5027106;28;20394;-61
2022/09/11 06:35:16;;;;;;;6.70;2.80;;;;;;;29.21;37.29;100881.63;5027436;28;20400;-61
2022/09/11 06:37:41;;;;;;;5.45;2.67;;;;;;;29.17;37.27;100883.28;5025049;28;20402;-61
2022/09/11 06:40:07;;;;;;;4.80;2.92;;;;;;;29.31;37.05;100886.94;5023426;28;20814;-60
2022/09/11 06:42:32;;;;;;;3.60;2.70;;;;;;;30.51;34.87;100874.03;5028594;28;20968;-62
2022/09/11 06:44:58;;;;;;;3.73;2.90;;;;;;;32.89;31.07;100882.22;5028538;28;20402;-62
2022/09/11 06:47:23;;;;;;;3.20;2.67;;;;;;;35.84;27.18;100861.94;5027265;28;20390;-58
2022/09/11 06:49:49;;;;;;;4.72;2.95;;;;;;;37.35;25.14;100870.59;5031124;28;20507;-61
2022/09/11 06:52:14;;;;;;;6.10;2.90;;;;;;;38.87;23.18;100870.00;5027154;28;20729;-60
2022/09/11 06:54:40;;;;;;;4.07;2.90;;;;;;;40.52;21.68;100859.56;5032467;28;20393;-60
2022/09/11 06:57:06;;;;;;;4.63;2.90;;;;;;;41.44;20.60;100861.38;5044666;28;20911;-59
2022/09/11 06:59:31;;;;;;;4.43;2.87;;;;;;;42.36;19.51;100868.38;5045394;28;20880;-60
2022/09/11 07:01:59;;;;;;;4.80;2.80;;;;;;;43.05;18.62;100861.34;5050724;28;20561;-60
2022/09/11 07:04:25;;;;;;;3.88;2.70;;;;;;;43.56;18.32;100865.97;5058092;28;20399;-60
2022/09/11 07:06:50;;;;;;;10.63;3.30;;;;;;;43.52;18.05;100873.56;5054904;28;20380;-61
2022/09/11 07:09:16;;;;;;;4.73;2.90;;;;;;;43.04;18.43;100874.50;5058493;28;20392;-60
2022/09/11 07:11:45;;;;;;;4.20;2.33;;;;;;;42.02;19.25;100865.63;5054999;28;20463;-60
2022/09/11 07:14:11;;;;;;;3.72;2.55;;;;;;;40.46;20.72;100872.16;5033243;28;20385;-60
2022/09/11 07:16:37;;;;;;;5.75;2.35;;;;;;;38.80;22.66;100865.88;5042506;28;20751;-60
2022/09/11 07:19:03;;;;;;;3.10;2.00;;;;;;;37.81;23.60;100867.59;5035396;28;20399;-61
2022/09/11 07:21:29;;;;;;;3.70;1.90;;;;;;;37.20;24.71;100861.03;5048466;28;20763;-60
2022/09/11 07:23:58;;;;;;;4.43;2.22;;;;;;;36.66;24.87;100869.53;5049102;28;20392;-60
2022/09/11 07:26:26;;;;;;;3.25;2.00;;;;;;;36.14;25.37;100855.16;5039753;28;20386;-60
2022/09/11 07:28:53;;;;;;;4.70;2.10;;;;;;;35.78;25.84;100859.38;5029263;28;20772;-60
2022/09/11 07:31:24;;;;;;;4.90;2.10;;;;;;;35.53;25.88;100858.44;5029432;28;20501;-60
2022/09/11 07:33:51;;;;;;;4.28;2.35;;;;;;;35.22;26.34;100856.88;5043580;28;20401;-60
2022/09/11 07:36:19;;;;;;;2.97;1.80;;;;;;;35.01;26.69;100848.53;5044015;28;20730;-60
2022/09/11 07:38:46;;;;;;;4.47;2.45;;;;;;;34.68;26.84;100853.81;5032977;28;20805;-61
2022/09/11 07:41:13;;;;;;;4.03;1.70;;;;;;;34.48;26.79;100844.34;5048859;28;20385;-60
2022/09/11 07:43:49;;;;;;;4.93;2.00;;;;;;;34.37;27.30;100856.84;5048180;28;20384;-60
2022/09/11 07:46:15;;;;;;;5.68;2.58;;;;;;;34.07;27.06;100846.53;5044660;28;20410;-60
2022/09/11 07:48:41;;;;;;;2.23;1.50;;;;;;;34.05;26.85;100846.06;5040974;28;20384;-60
2022/09/11 07:51:10;;;;;;;4.50;1.93;;;;;;;34.02;26.46;100843.94;5038112;28;20408;-61
2022/09/11 07:53:38;;;;;;;3.15;1.80;;;;;;;33.78;26.81;100851.91;5050245;28;20446;-60
2022/09/11 07:56:06;;;;;;;2.20;1.85;;;;;;;33.65;27.14;100851.72;5050027;28;20966;-60
2022/09/11 07:58:33;;;;;;;3.63;2.00;;;;;;;33.44;27.32;100854.28;5048683;28;20475;-61
2022/09/11 08:01:01;;;;;;;2.95;1.80;;;;;;;33.42;27.69;100858.47;5049234;28;20463;-61
2022/09/11 08:03:27;;;;;;;4.80;1.50;;;;;;;33.38;26.79;100850.06;5049624;28;20473;-60
2022/09/11 08:06:02;;;;;;;4.63;2.00;;;;;;;33.22;26.90;100854.41;5037470;28;20398;-60
2022/09/11 08:08:28;;;;;;;2.90;1.60;;;;;;;33.13;27.03;100851.63;5028853;28;20378;-60
2022/09/11 08:10:55;;;;;;;2.80;1.63;;;;;;;33.08;27.30;100852.56;5033815;28;20444;-60
2022/09/11 08:13:21;;;;;;;2.50;1.65;;;;;;;32.96;27.99;100852.38;5031162;28;20382;-61
2022/09/11 08:15:50;;;;;;;3.90;1.55;;;;;;;32.93;27.40;100850.25;5028747;28;20398;-60
2022/09/11 08:18:15;;;;;;;4.43;1.10;;;;;;;32.69;26.38;100842.44;5030174;28;20394;-60
2022/09/11 08:20:41;;;;;;;2.03;1.40;;;;;;;32.51;26.19;100830.53;5030056;28;20952;-61
2022/09/11 08:23:08;;;;;;;1.70;1.20;;;;;;;32.48;26.27;100831.94;5032740;28;20422;-60
2022/09/11 08:25:35;;;;;;;3.03;1.52;;;;;;;32.44;26.01;100830.97;5032259;28;20416;-60
2022/09/11 08:28:01;;;;;;;1.90;1.50;;;;;;;32.48;27.06;100829.22;5029103;28;21447;-60
2022/09/11 08:30:27;;;;;;;2.53;1.45;;;;;;;32.40;26.95;100832.72;5028658;28;20808;-60
2022/09/11 08:32:52;;;;;;;1.95;0.95;;;;;;;32.31;25.80;100829.13;5033957;28;20394;-60
2022/09/11 08:35:18;;;;;;;2.35;1.10;;;;;;;32.22;26.11;100831.81;5045908;28;20382;-60
2022/09/11 08:37:43;;;;;;;1.85;0.88;;;;;;;32.23;26.02;100829.88;5031607;28;20760;-61
2022/09/11 08:40:10;;;;;;;2.50;1.13;;;;;;;32.16;26.08;100827.56;5029339;28;20911;-61
2022/09/11 08:42:38;;;;;;;2.20;0.88;;;;;;;32.10;25.70;100834.31;5032587;28;20406;-61
2022/09/11 08:45:06;;;;;;;2.50;0.90;;;;;;;31.97;25.84;100830.50;5028231;28;20761;-60
2022/09/11 08:47:36;;;;;;;3.13;1.20;;;;;;;32.02;26.51;100824.91;5032198;28;20386;-61
2022/09/11 08:50:08;;;;;;;1.45;1.00;;;;;;;31.96;26.02;100831.63;5032383;28;20366;-61
2022/09/11 08:52:35;;;;;;;2.58;1.10;;;;;;;31.87;26.03;100834.28;5029047;28;20432;-60
2022/09/11 08:55:01;;;;;;;2.08;1.00;;;;;;;31.79;26.48;100826.81;5029106;28;20387;-60
2022/09/11 08:57:50;;;;;;;2.53;1.20;;;;;;;31.74;26.36;100825.00;5027807;28;20896;-61
2022/09/11 09:00:20;;;;;;;2.60;1.20;;;;;;;31.69;26.86;100822.38;5034640;28;20938;-61
2022/09/11 09:03:05;;;;;;;2.42;1.00;;;;;;;31.69;26.12;100827.84;5026764;28;20419;-61
2022/09/11 09:06:10;;;;;;;1.63;1.10;;;;;;;31.68;26.45;100828.19;5028897;28;20390;-59
2022/09/11 09:09:10;;;;;;;1.58;1.05;;;;;;;31.62;26.59;100822.81;5029284;28;20455;-61
2022/09/11 09:11:57;;;;;;;2.73;1.20;;;;;;;31.56;26.76;100821.31;5027321;28;20397;-61
2022/09/11 09:14:41;;;;;;;1.38;0.90;;;;;;;31.41;26.17;100810.69;5030670;28;20431;-61
2022/09/11 09:17:18;;;;;;;3.10;0.70;;;;;;;31.33;25.63;100811.41;5041070;28;20417;-62
2022/09/11 09:19:56;;;;;;;3.08;1.00;;;;;;;31.38;26.15;100811.28;5041178;28;20929;-63
2022/09/11 09:23:02;;;;;;;3.22;1.60;;;;;;;31.24;25.96;100805.84;5045917;28;20463;-62
2022/09/11 09:25:33;;;;;;;1.08;0.88;;;;;;;31.27;26.34;100810.69;5026762;28;20433;-61
2022/09/11 09:28:23;;;;;;;2.65;1.15;;;;;;;31.20;25.12;100805.63;5043423;28;20783;-61
2022/09/11 09:30:58;;;;;;;1.77;1.23;;;;;;;31.20;24.33;100821.25;5043687;28;20416;-61
2022/09/11 09:33:45;;;;;;;2.00;1.00;;;;;;;31.20;24.68;100813.03;5040550;28;20392;-61
2022/09/11 09:36:12;;;;;;;1.83;0.75;;;;;;;31.15;24.35;100792.09;5033064;28;20412;-61
2022/09/11 09:38:38;;;;;;;2.42;0.90;;;;;;;31.16;24.56;100801.09;5028073;28;20391;-61
2022/09/11 09:41:15;;;;;;;2.80;0.70;;;;;;;31.07;24.94;100806.47;5032868;28;20764;-61
2022/09/11 09:44:07;;;;;;;2.03;0.50;;;;;;;30.96;24.54;100799.59;5030054;28;20409;-61
2022/09/11 09:46:47;;;;;;;1.20;0.60;;;;;;;30.95;24.78;100797.97;5032745;28;20394;-61
2022/09/11 09:49:22;;;;;;;1.45;0.60;;;;;;;30.87;24.80;100800.28;5029409;28;20432;-61
2022/09/11 09:51:50;;;;;;;1.70;0.73;;;;;;;30.95;25.04;100795.22;5032627;28;20386;-61
2022/09/11 09:54:20;;;;;;;1.97;0.60;;;;;;;30.94;25.03;100788.16;5032999;28;20908;-66
2022/09/11 09:57:01;;;;;;;2.37;0.80;;;;;;;30.95;25.46;100787.81;5048959;28;20384;-64
2022/09/11 09:59:51;;;;;;;2.63;0.75;;;;;;;30.90;25.18;100793.41;5048750;28;20384;-64
2022/09/11 10:02:54;;;;;;;1.52;0.75;;;;;;;30.86;25.42;100795.09;5036870;28;20492;-63
2022/09/11 10:05:34;;;;;;;2.28;0.80;;;;;;;30.83;25.37;100782.84;5006576;28;20883;-63
2022/09/11 10:08:24;;;;;;;2.40;0.70;;;;;;;30.78;24.71;100779.41;5029808;28;20382;-63
2022/09/11 10:11:00;;;;;;;1.65;0.80;;;;;;;30.83;24.77;100788.31;5033563;28;20378;-63
2022/09/11 10:13:36;;;;;;;1.33;0.75;;;;;;;30.68;25.06;100780.41;5030307;28;20386;-63
2022/09/11 10:16:04;;;;;;;1.20;0.80;;;;;;;30.76;25.18;100776.16;5034470;28;20444;-62
2022/09/11 10:18:36;;;;;;;1.90;0.85;;;;;;;30.78;25.45;100771.19;5041927;28;20380;-63
2022/09/11 10:21:10;;;;;;;1.63;0.70;;;;;;;30.76;25.45;100766.03;5044627;28;20768;-63
2022/09/11 10:23:55;;;;;;;2.47;0.73;;;;;;;30.80;25.59;100771.69;5044185;28;20928;-63
2022/09/11 10:26:33;;;;;;;1.40;0.60;;;;;;;30.76;25.94;100755.09;5044629;28;20472;-62
2022/09/11 10:29:19;;;;;;;2.53;0.90;;;;;;;30.60;25.58;100764.72;5047416;28;20866;-63
2022/09/11 10:31:50;;;;;;;2.80;0.80;;;;;;;30.45;25.42;100758.44;5047100;28;20380;-63
2022/09/11 10:34:21;;;;;;;2.00;0.70;;;;;;;30.38;25.46;100765.38;5046584;28;20415;-63
2022/09/11 10:36:59;;;;;;;1.85;0.88;;;;;;;30.24;25.78;100766.16;5049893;28;20381;-64
2022/09/11 10:39:27;;;;;;;0.95;0.50;;;;;;;30.13;25.60;100763.94;5046842;28;20532;-63
2022/09/11 10:43:23;;;;;;;1.10;0.50;;;;;;;30.06;25.30;100770.59;5046892;28;20409;-64
2022/09/11 10:46:17;;;;;;;0.70;0.57;;;;;;;30.11;25.48;100767.75;5041795;28;20397;-64
2022/09/11 10:48:55;;;;;;;1.30;0.60;;;;;;;29.97;25.44;100766.13;5041006;28;20401;-63
2022/09/11 10:51:22;;;;;;;3.57;0.63;;;;;;;29.85;25.56;100766.56;5027801;28;20501;-63
2022/09/11 10:54:09;;;;;;;2.67;0.70;;;;;;;29.79;25.71;100773.25;5026174;28;20391;-63
2022/09/11 10:56:46;;;;;;;2.05;0.70;;;;;;;29.83;25.57;100780.53;5025725;28;20919;-64
2022/09/11 10:59:18;;;;;;;1.15;0.57;;;;;;;29.83;25.59;100774.25;5029892;28;20385;-63
2022/09/11 11:01:43;;;;;;;1.52;0.40;;;;;;;29.85;25.92;100777.50;5025942;28;20411;-64
2022/09/11 11:04:11;;;;;;;1.83;0.50;;;;;;;29.84;25.80;100782.16;5025669;28;20762;-63
2022/09/11 11:07:27;;;;;;;2.00;0.50;;;;;;;29.75;25.85;100773.03;5025849;28;20415;-63
2022/09/11 11:10:15;;;;;;;0.80;0.50;;;;;;;29.69;25.89;100776.91;5026604;28;20399;-62
2022/09/11 11:12:44;;;;;;;2.50;0.55;;;;;;;29.78;26.10;100779.81;5034039;28;20397;-63
2022/09/11 11:15:29;;;;;;;1.85;0.50;;;;;;;29.81;26.14;100781.94;5031222;28;20873;-62
2022/09/11 11:18:25;;;;;;;1.73;0.50;;;;;;;29.82;26.22;100769.91;5024771;28;20388;-64
2022/09/11 11:21:00;;;;;;;2.28;0.55;;;;;;;29.81;25.89;100773.75;5025153;28;20390;-64
2022/09/11 11:25:21;;;;;;;3.63;1.20;;;;;;;29.68;28.36;100780.75;5052012;28;20814;-64
2022/09/11 11:28:05;;;;;;;1.48;1.30;;;;;;;29.45;29.69;100786.00;5026679;28;20490;-64
2022/09/11 11:30:46;;;;;;;4.00;1.50;;;;;;;29.40;30.68;100777.88;5035535;28;20402;-64
2022/09/11 11:33:30;;;;;;;4.97;1.60;;;;;;;29.19;31.22;100771.91;5039869;28;20390;-64
2022/09/11 11:36:18;;;;;;;2.60;1.40;;;;;;;28.97;31.51;100781.44;5042816;28;20402;-65
2022/09/11 11:38:59;;;;;;;1.60;1.10;;;;;;;28.98;31.32;100777.59;5039536;28;20875;-64
2022/09/11 11:41:28;;;;;;;1.55;1.00;;;;;;;29.04;31.44;100772.06;5032838;28;20447;-64
2022/09/11 11:43:58;;;;;;;1.80;1.17;;;;;;;29.03;31.37;100764.97;5045886;28;20414;-64
2022/09/11 11:46:37;;;;;;;1.27;1.10;;;;;;;29.06;31.24;100767.94;5041943;28;20380;-64
2022/09/11 11:49:14;;;;;;;2.78;1.13;;;;;;;29.11;31.04;100748.75;5039075;28;20386;-64
2022/09/11 11:51:54;;;;;;;1.87;1.00;;;;;;;29.20;30.88;100750.88;5034492;28;20483;-64
2022/09/11 11:54:36;;;;;;;2.50;0.90;;;;;;;29.31;30.34;100746.88;5040897;28;20422;-64
2022/09/11 11:57:10;;;;;;;2.40;1.00;;;;;;;29.38;29.97;100746.53;5045547;28;20386;-64
2022/09/11 12:00:00;;;;;;;1.63;0.90;;;;;;;29.52;29.91;100750.13;5036730;28;20395;-64
2022/09/11 12:02:53;;;;;;;1.73;0.82;;;;;;;29.60;29.77;100737.72;5029391;28;20386;-64
2022/09/11 12:05:33;;;;;;;4.25;1.10;;;;;;;29.78;29.83;100738.81;5045086;28;20390;-64
2022/09/11 12:07:59;;;;;;;3.20;0.90;;;;;;;29.93;29.88;100742.09;5045018;28;20404;-65
2022/09/11 12:10:37;;;;;;;2.80;0.73;;;;;;;30.01;28.99;100729.66;5045617;28;20398;-64
2022/09/11 12:15:24;;;;;;;2.80;0.70;;;;;;;30.13;29.02;100731.94;5067263;28;20407;-64
2022/09/11 12:18:28;;;;;;;2.27;0.50;;;;;;;30.00;27.41;100732.69;5046193;28;20400;-65
2022/09/11 12:21:23;;;;;;;1.70;0.68;;;;;;;29.97;26.77;100731.38;5023819;28;20399;-64
2022/09/11 12:23:48;;;;;;;1.98;0.60;;;;;;;29.98;26.57;100729.44;5023635;28;20445;-64
2022/09/11 12:26:16;;;;;;;2.13;0.60;;;;;;;29.96;26.50;100721.56;5033175;28;20393;-64
2022/09/11 12:28:42;;;;;;;2.55;0.80;;;;;;;29.85;26.51;100722.84;5045461;28;20536;-65